sensor_id;sensor_type;location;lat;lon;timestamp;P1;durP1;ratioP1;P2;durP2;ratioP2
74679;SDS011;63211;48.548;2.704;2023-04-25T00:01:55;0.50;;;0.30;;
74679;SDS011;63211;48.548;2.704;2023-04-25T00:04:22;0.95;;;0.40;;
74679;SDS011;63211;48.548;2.704;2023-04-25T00:06:50;0.60;;;0.30;;
74679;SDS011;63211;48.548;2.704;2023-04-25T00:09:17;1.65;;;0.60;;
74679;SDS011;63211;48.548;2.704;2023-04-25T00:11:45;0.32;;;0.08;;
74679;SDS011;63211;48.548;2.704;2023-04-25T00:14:11;0.65;;;0.25;;
74679;SDS011;63211;48.548;2.704;2023-04-25T00:16:38;0.30;;;0.10;;
74679;SDS011;63211;48.548;2.704;2023-04-25T00:19:06;0.38;;;0.10;;
74679;SDS011;63211;48.548;2.704;2023-04-25T00:21:32;0.68;;;0.30;;
74679;SDS011;63211;48.548;2.704;2023-04-25T00:24:00;0.30;;;0.10;;
74679;SDS011;63211;48.548;2.704;2023-04-25T00:26:27;0.88;;;0.30;;
74679;SDS011;63211;48.548;2.704;2023-04-25T00:28:55;0.70;;;0.25;;
74679;SDS011;63211;48.548;2.704;2023-04-25T00:31:21;0.50;;;0.28;;
74679;SDS011;63211;48.548;2.704;2023-04-25T00:33:48;1.25;;;0.20;;
74679;SDS011;63211;48.548;2.704;2023-04-25T00:36:15;0.30;;;0.20;;
74679;SDS011;63211;48.548;2.704;2023-04-25T00:38:42;1.27;;;0.30;;
74679;SDS011;63211;48.548;2.704;2023-04-25T00:41:08;0.68;;;0.28;;
74679;SDS011;63211;48.548;2.704;2023-04-25T00:43:35;0.50;;;0.20;;
74679;SDS011;63211;48.548;2.704;2023-04-25T00:46:04;0.75;;;0.20;;
74679;SDS011;63211;48.548;2.704;2023-04-25T00:48:31;0.30;;;0.17;;
74679;SDS011;63211;48.548;2.704;2023-04-25T00:50:58;0.75;;;0.30;;
74679;SDS011;63211;48.548;2.704;2023-04-25T00:53:26;1.42;;;0.20;;
74679;SDS011;63211;48.548;2.704;2023-04-25T00:55:54;0.60;;;0.20;;
74679;SDS011;63211;48.548;2.704;2023-04-25T00:58:21;1.10;;;0.20;;
74679;SDS011;63211;48.548;2.704;2023-04-25T01:00:49;0.47;;;0.22;;
74679;SDS011;63211;48.548;2.704;2023-04-25T01:03:18;0.65;;;0.30;;
74679;SDS011;63211;48.548;2.704;2023-04-25T01:05:46;2.13;;;0.22;;
74679;SDS011;63211;48.548;2.704;2023-04-25T01:08:13;0.38;;;0.20;;
74679;SDS011;63211;48.548;2.704;2023-04-25T01:10:40;2.47;;;1.10;;
74679;SDS011;63211;48.548;2.704;2023-04-25T01:13:07;0.85;;;0.30;;
74679;SDS011;63211;48.548;2.704;2023-04-25T01:15:34;0.93;;;0.30;;
74679;SDS011;63211;48.548;2.704;2023-04-25T01:18:01;5.43;;;0.30;;
74679;SDS011;63211;48.548;2.704;2023-04-25T01:20:30;0.30;;;0.20;;
74679;SDS011;63211;48.548;2.704;2023-04-25T01:23:00;0.52;;;0.10;;
74679;SDS011;63211;48.548;2.704;2023-04-25T01:25:28;0.40;;;0.20;;
74679;SDS011;63211;48.548;2.704;2023-04-25T01:27:55;1.02;;;0.22;;
74679;SDS011;63211;48.548;2.704;2023-04-25T01:30:22;0.25;;;0.15;;
74679;SDS011;63211;48.548;2.704;2023-04-25T01:32:50;0.47;;;0.20;;
74679;SDS011;63211;48.548;2.704;2023-04-25T01:35:17;1.67;;;0.20;;
74679;SDS011;63211;48.548;2.704;2023-04-25T01:37:44;0.28;;;0.10;;
74679;SDS011;63211;48.548;2.704;2023-04-25T01:40:13;0.10;;;0.10;;
74679;SDS011;63211;48.548;2.704;2023-04-25T01:42:40;0.30;;;0.20;;
74679;SDS011;63211;48.548;2.704;2023-04-25T01:45:09;0.38;;;0.20;;
74679;SDS011;63211;48.548;2.704;2023-04-25T01:47:37;0.77;;;0.10;;
74679;SDS011;63211;48.548;2.704;2023-04-25T01:50:05;0.25;;;0.20;;
74679;SDS011;63211;48.548;2.704;2023-04-25T01:52:33;0.47;;;0.30;;
74679;SDS011;63211;48.548;2.704;2023-04-25T01:55:00;0.85;;;0.20;;
74679;SDS011;63211;48.548;2.704;2023-04-25T01:57:29;0.75;;;0.20;;
74679;SDS011;63211;48.548;2.704;2023-04-25T01:59:57;0.38;;;0.13;;
74679;SDS011;63211;48.548;2.704;2023-04-25T02:02:25;0.40;;;0.10;;
74679;SDS011;63211;48.548;2.704;2023-04-25T02:04:52;0.35;;;0.10;;
74679;SDS011;63211;48.548;2.704;2023-04-25T02:07:19;0.28;;;0.10;;
74679;SDS011;63211;48.548;2.704;2023-04-25T02:09:45;0.25;;;0.20;;
74679;SDS011;63211;48.548;2.704;2023-04-25T02:12:12;2.05;;;0.20;;
74679;SDS011;63211;48.548;2.704;2023-04-25T02:14:40;0.68;;;0.30;;
74679;SDS011;63211;48.548;2.704;2023-04-25T02:17:07;0.88;;;0.25;;
74679;SDS011;63211;48.548;2.704;2023-04-25T02:19:34;1.40;;;0.40;;
74679;SDS011;63211;48.548;2.704;2023-04-25T02:22:00;0.50;;;0.20;;
74679;SDS011;63211;48.548;2.704;2023-04-25T02:24:27;0.70;;;0.40;;
74679;SDS011;63211;48.548;2.704;2023-04-25T02:26:54;0.38;;;0.15;;
74679;SDS011;63211;48.548;2.704;2023-04-25T02:29:21;0.93;;;0.30;;
74679;SDS011;63211;48.548;2.704;2023-04-25T02:31:49;1.60;;;0.20;;
74679;SDS011;63211;48.548;2.704;2023-04-25T02:34:16;0.35;;;0.20;;
74679;SDS011;63211;48.548;2.704;2023-04-25T02:36:42;0.63;;;0.22;;
74679;SDS011;63211;48.548;2.704;2023-04-25T02:39:09;0.30;;;0.10;;
74679;SDS011;63211;48.548;2.704;2023-04-25T02:41:36;0.30;;;0.10;;
74679;SDS011;63211;48.548;2.704;2023-04-25T02:44:03;0.75;;;0.25;;
74679;SDS011;63211;48.548;2.704;2023-04-25T02:46:29;0.82;;;0.17;;
74679;SDS011;63211;48.548;2.704;2023-04-25T02:48:57;0.28;;;0.10;;
74679;SDS011;63211;48.548;2.704;2023-04-25T02:51:24;0.13;;;0.03;;
74679;SDS011;63211;48.548;2.704;2023-04-25T02:53:51;0.13;;;0.10;;
74679;SDS011;63211;48.548;2.704;2023-04-25T02:56:18;0.65;;;0.40;;
74679;SDS011;63211;48.548;2.704;2023-04-25T02:58:44;0.40;;;0.15;;
74679;SDS011;63211;48.548;2.704;2023-04-25T03:01:11;0.20;;;0.10;;
74679;SDS011;63211;48.548;2.704;2023-04-25T03:03:37;0.38;;;0.10;;
74679;SDS011;63211;48.548;2.704;2023-04-25T03:06:06;1.05;;;0.40;;
74679;SDS011;63211;48.548;2.704;2023-04-25T03:08:32;0.40;;;0.17;;
74679;SDS011;63211;48.548;2.704;2023-04-25T03:10:59;1.35;;;0.20;;
74679;SDS011;63211;48.548;2.704;2023-04-25T03:13:26;0.28;;;0.10;;
74679;SDS011;63211;48.548;2.704;2023-04-25T03:15:54;0.28;;;0.20;;
74679;SDS011;63211;48.548;2.704;2023-04-25T03:18:21;0.90;;;0.30;;
74679;SDS011;63211;48.548;2.704;2023-04-25T03:20:48;0.60;;;0.20;;
74679;SDS011;63211;48.548;2.704;2023-04-25T03:23:16;0.60;;;0.20;;
74679;SDS011;63211;48.548;2.704;2023-04-25T03:25:42;0.82;;;0.25;;
74679;SDS011;63211;48.548;2.704;2023-04-25T03:28:09;0.35;;;0.10;;
74679;SDS011;63211;48.548;2.704;2023-04-25T03:30:35;1.38;;;0.25;;
74679;SDS011;63211;48.548;2.704;2023-04-25T03:33:02;1.05;;;0.32;;
74679;SDS011;63211;48.548;2.704;2023-04-25T03:35:29;0.77;;;0.20;;
74679;SDS011;63211;48.548;2.704;2023-04-25T03:37:55;2.05;;;0.43;;
74679;SDS011;63211;48.548;2.704;2023-04-25T03:40:23;0.32;;;0.22;;
74679;SDS011;63211;48.548;2.704;2023-04-25T03:42:50;1.33;;;0.35;;
74679;SDS011;63211;48.548;2.704;2023-04-25T03:45:16;0.15;;;0.10;;
74679;SDS011;63211;48.548;2.704;2023-04-25T03:47:43;0.95;;;0.40;;
74679;SDS011;63211;48.548;2.704;2023-04-25T03:50:10;0.28;;;0.15;;
74679;SDS011;63211;48.548;2.704;2023-04-25T03:52:36;0.50;;;0.30;;
74679;SDS011;63211;48.548;2.704;2023-04-25T03:55:03;0.50;;;0.20;;
74679;SDS011;63211;48.548;2.704;2023-04-25T03:57:32;0.55;;;0.10;;
74679;SDS011;63211;48.548;2.704;2023-04-25T03:59:58;0.50;;;0.20;;
74679;SDS011;63211;48.548;2.704;2023-04-25T04:02:25;0.43;;;0.22;;
74679;SDS011;63211;48.548;2.704;2023-04-25T04:04:51;0.10;;;0.10;;
74679;SDS011;63211;48.548;2.704;2023-04-25T04:07:18;0.85;;;0.30;;
74679;SDS011;63211;48.548;2.704;2023-04-25T04:09:45;0.30;;;0.20;;
74679;SDS011;63211;48.548;2.704;2023-04-25T04:12:11;0.70;;;0.25;;
74679;SDS011;63211;48.548;2.704;2023-04-25T04:14:40;0.30;;;0.10;;
74679;SDS011;63211;48.548;2.704;2023-04-25T04:17:06;0.32;;;0.20;;
74679;SDS011;63211;48.548;2.704;2023-04-25T04:19:33;0.32;;;0.17;;
74679;SDS011;63211;48.548;2.704;2023-04-25T04:21:59;0.40;;;0.20;;
74679;SDS011;63211;48.548;2.704;2023-04-25T04:24:26;0.30;;;0.10;;
74679;SDS011;63211;48.548;2.704;2023-04-25T04:26:53;0.30;;;0.10;;
74679;SDS011;63211;48.548;2.704;2023-04-25T04:29:20;0.20;;;0.10;;
74679;SDS011;63211;48.548;2.704;2023-04-25T04:31:48;0.40;;;0.10;;
74679;SDS011;63211;48.548;2.704;2023-04-25T04:34:15;0.63;;;0.30;;
74679;SDS011;63211;48.548;2.704;2023-04-25T04:36:42;1.20;;;0.20;;
74679;SDS011;63211;48.548;2.704;2023-04-25T04:39:10;0.30;;;0.17;;
74679;SDS011;63211;48.548;2.704;2023-04-25T04:41:36;0.93;;;0.65;;
74679;SDS011;63211;48.548;2.704;2023-04-25T04:44:03;0.70;;;0.30;;
74679;SDS011;63211;48.548;2.704;2023-04-25T04:46:31;1.98;;;0.75;;
74679;SDS011;63211;48.548;2.704;2023-04-25T04:49:04;1.95;;;0.40;;
74679;SDS011;63211;48.548;2.704;2023-04-25T04:51:30;1.25;;;0.35;;
74679;SDS011;63211;48.548;2.704;2023-04-25T04:53:58;0.50;;;0.30;;
74679;SDS011;63211;48.548;2.704;2023-04-25T04:56:27;0.88;;;0.22;;
74679;SDS011;63211;48.548;2.704;2023-04-25T04:58:54;0.63;;;0.40;;
74679;SDS011;63211;48.548;2.704;2023-04-25T05:01:21;0.70;;;0.50;;
74679;SDS011;63211;48.548;2.704;2023-04-25T05:03:48;0.52;;;0.25;;
74679;SDS011;63211;48.548;2.704;2023-04-25T05:06:16;0.43;;;0.15;;
74679;SDS011;63211;48.548;2.704;2023-04-25T05:08:43;0.60;;;0.20;;
74679;SDS011;63211;48.548;2.704;2023-04-25T05:11:09;0.77;;;0.30;;
74679;SDS011;63211;48.548;2.704;2023-04-25T05:13:36;0.40;;;0.20;;
74679;SDS011;63211;48.548;2.704;2023-04-25T05:16:03;0.60;;;0.15;;
74679;SDS011;63211;48.548;2.704;2023-04-25T05:18:30;0.20;;;0.10;;
74679;SDS011;63211;48.548;2.704;2023-04-25T05:20:56;1.55;;;0.35;;
74679;SDS011;63211;48.548;2.704;2023-04-25T05:23:24;1.20;;;0.20;;
74679;SDS011;63211;48.548;2.704;2023-04-25T05:25:52;0.43;;;0.13;;
74679;SDS011;63211;48.548;2.704;2023-04-25T05:28:19;0.88;;;0.28;;
74679;SDS011;63211;48.548;2.704;2023-04-25T05:30:46;0.45;;;0.25;;
74679;SDS011;63211;48.548;2.704;2023-04-25T05:33:12;0.90;;;0.30;;
74679;SDS011;63211;48.548;2.704;2023-04-25T05:35:39;2.35;;;0.30;;
74679;SDS011;63211;48.548;2.704;2023-04-25T05:38:06;0.50;;;0.22;;
74679;SDS011;63211;48.548;2.704;2023-04-25T05:40:34;0.73;;;0.30;;
74679;SDS011;63211;48.548;2.704;2023-04-25T05:43:01;0.63;;;0.13;;
74679;SDS011;63211;48.548;2.704;2023-04-25T05:45:27;1.10;;;0.20;;
74679;SDS011;63211;48.548;2.704;2023-04-25T05:47:54;0.90;;;0.20;;
74679;SDS011;63211;48.548;2.704;2023-04-25T05:50:20;0.43;;;0.20;;
74679;SDS011;63211;48.548;2.704;2023-04-25T05:52:47;0.40;;;0.10;;
74679;SDS011;63211;48.548;2.704;2023-04-25T05:55:14;0.50;;;0.20;;
74679;SDS011;63211;48.548;2.704;2023-04-25T05:57:42;1.65;;;0.30;;
74679;SDS011;63211;48.548;2.704;2023-04-25T06:00:11;0.90;;;0.30;;
74679;SDS011;63211;48.548;2.704;2023-04-25T06:02:40;30.15;;;7.03;;
74679;SDS011;63211;48.548;2.704;2023-04-25T06:05:07;3.95;;;1.10;;
74679;SDS011;63211;48.548;2.704;2023-04-25T06:07:34;125.93;;;29.48;;
74679;SDS011;63211;48.548;2.704;2023-04-25T06:10:01;122.38;;;26.35;;
74679;SDS011;63211;48.548;2.704;2023-04-25T06:12:31;93.60;;;21.40;;
74679;SDS011;63211;48.548;2.704;2023-04-25T06:14:59;57.15;;;11.63;;
74679;SDS011;63211;48.548;2.704;2023-04-25T06:17:25;41.72;;;8.20;;
74679;SDS011;63211;48.548;2.704;2023-04-25T06:19:52;34.33;;;9.05;;
74679;SDS011;63211;48.548;2.704;2023-04-25T06:22:19;24.27;;;6.85;;
74679;SDS011;63211;48.548;2.704;2023-04-25T06:24:45;29.55;;;7.57;;
74679;SDS011;63211;48.548;2.704;2023-04-25T06:27:12;29.33;;;7.53;;
74679;SDS011;63211;48.548;2.704;2023-04-25T06:29:38;21.23;;;5.60;;
74679;SDS011;63211;48.548;2.704;2023-04-25T06:32:06;26.58;;;6.57;;
74679;SDS011;63211;48.548;2.704;2023-04-25T06:34:33;23.02;;;5.65;;
74679;SDS011;63211;48.548;2.704;2023-04-25T06:36:59;22.13;;;5.63;;
74679;SDS011;63211;48.548;2.704;2023-04-25T06:39:26;28.98;;;7.63;;
74679;SDS011;63211;48.548;2.704;2023-04-25T06:41:52;29.75;;;6.07;;
74679;SDS011;63211;48.548;2.704;2023-04-25T06:44:19;32.28;;;6.47;;
74679;SDS011;63211;48.548;2.704;2023-04-25T06:46:48;27.35;;;5.45;;
74679;SDS011;63211;48.548;2.704;2023-04-25T06:49:16;18.20;;;5.45;;
74679;SDS011;63211;48.548;2.704;2023-04-25T06:51:42;19.38;;;4.82;;
74679;SDS011;63211;48.548;2.704;2023-04-25T06:54:09;25.52;;;5.32;;
74679;SDS011;63211;48.548;2.704;2023-04-25T06:56:36;15.10;;;5.18;;
74679;SDS011;63211;48.548;2.704;2023-04-25T06:59:02;16.90;;;4.78;;
74679;SDS011;63211;48.548;2.704;2023-04-25T07:01:29;16.30;;;4.72;;
74679;SDS011;63211;48.548;2.704;2023-04-25T07:03:56;9.23;;;3.55;;
74679;SDS011;63211;48.548;2.704;2023-04-25T07:06:23;11.68;;;3.35;;
74679;SDS011;63211;48.548;2.704;2023-04-25T07:08:51;15.93;;;4.88;;
74679;SDS011;63211;48.548;2.704;2023-04-25T07:11:18;15.48;;;3.35;;
74679;SDS011;63211;48.548;2.704;2023-04-25T07:13:45;13.73;;;4.28;;
74679;SDS011;63211;48.548;2.704;2023-04-25T07:16:11;16.70;;;3.58;;
74679;SDS011;63211;48.548;2.704;2023-04-25T07:18:38;9.50;;;3.17;;
74679;SDS011;63211;48.548;2.704;2023-04-25T07:21:05;9.52;;;2.45;;
74679;SDS011;63211;48.548;2.704;2023-04-25T07:23:33;10.40;;;2.20;;
74679;SDS011;63211;48.548;2.704;2023-04-25T07:25:59;12.63;;;2.92;;
74679;SDS011;63211;48.548;2.704;2023-04-25T07:28:26;8.93;;;3.28;;
74679;SDS011;63211;48.548;2.704;2023-04-25T07:30:52;16.30;;;3.67;;
74679;SDS011;63211;48.548;2.704;2023-04-25T07:33:19;12.88;;;3.25;;
74679;SDS011;63211;48.548;2.704;2023-04-25T07:35:46;7.63;;;2.17;;
74679;SDS011;63211;48.548;2.704;2023-04-25T07:38:13;9.40;;;3.08;;
74679;SDS011;63211;48.548;2.704;2023-04-25T07:40:41;7.93;;;2.83;;
74679;SDS011;63211;48.548;2.704;2023-04-25T07:43:07;8.80;;;2.38;;
74679;SDS011;63211;48.548;2.704;2023-04-25T07:45:34;9.27;;;3.13;;
74679;SDS011;63211;48.548;2.704;2023-04-25T07:48:00;10.73;;;2.55;;
74679;SDS011;63211;48.548;2.704;2023-04-25T07:50:28;8.00;;;2.65;;
74679;SDS011;63211;48.548;2.704;2023-04-25T07:52:54;9.05;;;2.30;;
74679;SDS011;63211;48.548;2.704;2023-04-25T07:55:21;8.35;;;2.63;;
74679;SDS011;63211;48.548;2.704;2023-04-25T07:57:49;7.35;;;2.03;;
74679;SDS011;63211;48.548;2.704;2023-04-25T08:00:15;5.85;;;1.75;;
74679;SDS011;63211;48.548;2.704;2023-04-25T08:02:42;6.50;;;1.85;;
74679;SDS011;63211;48.548;2.704;2023-04-25T08:05:09;7.90;;;1.88;;
74679;SDS011;63211;48.548;2.704;2023-04-25T08:07:39;4.65;;;2.17;;
74679;SDS011;63211;48.548;2.704;2023-04-25T08:10:06;5.25;;;1.65;;
74679;SDS011;63211;48.548;2.704;2023-04-25T08:12:33;7.88;;;2.60;;
74679;SDS011;63211;48.548;2.704;2023-04-25T08:15:01;5.18;;;1.50;;
74679;SDS011;63211;48.548;2.704;2023-04-25T08:17:28;5.15;;;1.67;;
74679;SDS011;63211;48.548;2.704;2023-04-25T08:19:55;5.88;;;1.67;;
74679;SDS011;63211;48.548;2.704;2023-04-25T08:22:22;2.88;;;1.20;;
74679;SDS011;63211;48.548;2.704;2023-04-25T08:24:48;4.43;;;1.55;;
74679;SDS011;63211;48.548;2.704;2023-04-25T08:27:15;4.38;;;1.33;;
74679;SDS011;63211;48.548;2.704;2023-04-25T08:29:41;4.82;;;1.33;;
74679;SDS011;63211;48.548;2.704;2023-04-25T08:32:09;4.55;;;1.27;;
74679;SDS011;63211;48.548;2.704;2023-04-25T08:34:36;3.30;;;1.02;;
74679;SDS011;63211;48.548;2.704;2023-04-25T08:37:04;4.72;;;1.33;;
74679;SDS011;63211;48.548;2.704;2023-04-25T08:39:31;5.32;;;1.13;;
74679;SDS011;63211;48.548;2.704;2023-04-25T08:41:57;4.85;;;1.70;;
74679;SDS011;63211;48.548;2.704;2023-04-25T08:44:24;2.45;;;0.88;;
74679;SDS011;63211;48.548;2.704;2023-04-25T08:46:51;1.67;;;0.60;;
74679;SDS011;63211;48.548;2.704;2023-04-25T08:49:19;3.28;;;0.70;;
74679;SDS011;63211;48.548;2.704;2023-04-25T08:51:46;2.03;;;1.05;;
74679;SDS011;63211;48.548;2.704;2023-04-25T08:54:15;2.72;;;0.85;;
74679;SDS011;63211;48.548;2.704;2023-04-25T08:56:44;3.95;;;0.90;;
74679;SDS011;63211;48.548;2.704;2023-04-25T08:59:13;2.90;;;0.90;;
74679;SDS011;63211;48.548;2.704;2023-04-25T09:01:40;2.15;;;0.73;;
74679;SDS011;63211;48.548;2.704;2023-04-25T09:04:07;2.13;;;0.60;;
74679;SDS011;63211;48.548;2.704;2023-04-25T09:06:35;2.10;;;0.60;;
74679;SDS011;63211;48.548;2.704;2023-04-25T09:09:02;1.02;;;0.68;;
74679;SDS011;63211;48.548;2.704;2023-04-25T09:11:30;2.40;;;0.80;;
74679;SDS011;63211;48.548;2.704;2023-04-25T09:14:09;1.88;;;0.65;;
74679;SDS011;63211;48.548;2.704;2023-04-25T09:16:47;1.60;;;0.60;;
74679;SDS011;63211;48.548;2.704;2023-04-25T09:19:25;2.05;;;0.80;;
74679;SDS011;63211;48.548;2.704;2023-04-25T09:21:54;1.52;;;0.60;;
74679;SDS011;63211;48.548;2.704;2023-04-25T09:24:29;1.65;;;0.50;;
74679;SDS011;63211;48.548;2.704;2023-04-25T09:26:57;2.13;;;0.57;;
74679;SDS011;63211;48.548;2.704;2023-04-25T09:29:28;2.15;;;0.70;;
74679;SDS011;63211;48.548;2.704;2023-04-25T09:32:04;2.30;;;1.13;;
74679;SDS011;63211;48.548;2.704;2023-04-25T09:34:38;1.58;;;0.52;;
74679;SDS011;63211;48.548;2.704;2023-04-25T09:37:07;1.13;;;0.40;;
74679;SDS011;63211;48.548;2.704;2023-04-25T09:39:35;1.77;;;0.50;;
74679;SDS011;63211;48.548;2.704;2023-04-25T09:42:02;1.40;;;0.70;;
74679;SDS011;63211;48.548;2.704;2023-04-25T09:44:30;1.00;;;0.50;;
74679;SDS011;63211;48.548;2.704;2023-04-25T09:46:56;1.25;;;0.73;;
74679;SDS011;63211;48.548;2.704;2023-04-25T09:49:24;1.33;;;0.52;;
74679;SDS011;63211;48.548;2.704;2023-04-25T09:51:54;1.33;;;0.38;;
74679;SDS011;63211;48.548;2.704;2023-04-25T09:54:24;1.15;;;0.60;;
74679;SDS011;63211;48.548;2.704;2023-04-25T09:56:51;1.90;;;0.70;;
74679;SDS011;63211;48.548;2.704;2023-04-25T09:59:19;1.10;;;0.40;;
74679;SDS011;63211;48.548;2.704;2023-04-25T10:01:47;0.93;;;0.40;;
74679;SDS011;63211;48.548;2.704;2023-04-25T10:04:15;1.40;;;0.60;;
74679;SDS011;63211;48.548;2.704;2023-04-25T10:06:46;1.02;;;0.50;;
74679;SDS011;63211;48.548;2.704;2023-04-25T10:09:15;0.90;;;0.45;;
74679;SDS011;63211;48.548;2.704;2023-04-25T10:11:44;1.00;;;0.55;;
74679;SDS011;63211;48.548;2.704;2023-04-25T10:14:12;1.55;;;0.40;;
74679;SDS011;63211;48.548;2.704;2023-04-25T10:16:40;1.20;;;0.52;;
74679;SDS011;63211;48.548;2.704;2023-04-25T10:19:08;0.77;;;0.40;;
74679;SDS011;63211;48.548;2.704;2023-04-25T10:21:40;0.55;;;0.35;;
74679;SDS011;63211;48.548;2.704;2023-04-25T10:24:14;0.77;;;0.40;;
74679;SDS011;63211;48.548;2.704;2023-04-25T10:26:42;0.70;;;0.40;;
74679;SDS011;63211;48.548;2.704;2023-04-25T10:29:10;1.73;;;0.40;;
74679;SDS011;63211;48.548;2.704;2023-04-25T10:31:44;1.15;;;0.40;;
74679;SDS011;63211;48.548;2.704;2023-04-25T10:34:12;1.52;;;0.35;;
74679;SDS011;63211;48.548;2.704;2023-04-25T10:36:38;0.50;;;0.30;;
74679;SDS011;63211;48.548;2.704;2023-04-25T10:39:06;1.38;;;0.47;;
74679;SDS011;63211;48.548;2.704;2023-04-25T10:41:45;1.02;;;0.43;;
74679;SDS011;63211;48.548;2.704;2023-04-25T10:44:14;1.50;;;0.43;;
74679;SDS011;63211;48.548;2.704;2023-04-25T10:46:41;0.90;;;0.40;;
74679;SDS011;63211;48.548;2.704;2023-04-25T10:49:14;1.92;;;0.40;;
74679;SDS011;63211;48.548;2.704;2023-04-25T10:54:39;0.88;;;0.50;;
74679;SDS011;63211;48.548;2.704;2023-04-25T10:57:07;1.60;;;0.35;;
74679;SDS011;63211;48.548;2.704;2023-04-25T10:59:34;0.95;;;0.40;;
74679;SDS011;63211;48.548;2.704;2023-04-25T11:02:01;1.35;;;0.40;;
74679;SDS011;63211;48.548;2.704;2023-04-25T11:04:37;1.27;;;0.50;;
74679;SDS011;63211;48.548;2.704;2023-04-25T11:07:09;1.02;;;0.50;;
74679;SDS011;63211;48.548;2.704;2023-04-25T11:09:45;0.82;;;0.30;;
74679;SDS011;63211;48.548;2.704;2023-04-25T11:12:12;1.17;;;0.60;;
74679;SDS011;63211;48.548;2.704;2023-04-25T11:14:40;0.77;;;0.43;;
74679;SDS011;63211;48.548;2.704;2023-04-25T11:17:07;1.17;;;0.55;;
74679;SDS011;63211;48.548;2.704;2023-04-25T11:19:33;1.13;;;0.40;;
74679;SDS011;63211;48.548;2.704;2023-04-25T11:22:01;1.70;;;0.57;;
74679;SDS011;63211;48.548;2.704;2023-04-25T11:24:28;1.50;;;0.68;;
74679;SDS011;63211;48.548;2.704;2023-04-25T11:26:56;1.25;;;0.38;;
74679;SDS011;63211;48.548;2.704;2023-04-25T11:29:26;1.48;;;0.50;;
74679;SDS011;63211;48.548;2.704;2023-04-25T11:31:54;1.17;;;0.40;;
74679;SDS011;63211;48.548;2.704;2023-04-25T11:34:23;1.33;;;0.68;;
74679;SDS011;63211;48.548;2.704;2023-04-25T11:36:50;1.42;;;0.65;;
74679;SDS011;63211;48.548;2.704;2023-04-25T11:39:17;1.48;;;0.70;;
74679;SDS011;63211;48.548;2.704;2023-04-25T11:41:44;1.55;;;0.70;;
74679;SDS011;63211;48.548;2.704;2023-04-25T11:44:11;1.85;;;0.60;;
74679;SDS011;63211;48.548;2.704;2023-04-25T11:46:38;1.08;;;0.40;;
74679;SDS011;63211;48.548;2.704;2023-04-25T11:49:06;1.10;;;0.70;;
74679;SDS011;63211;48.548;2.704;2023-04-25T11:51:37;1.10;;;0.68;;
74679;SDS011;63211;48.548;2.704;2023-04-25T11:54:04;1.23;;;0.52;;
74679;SDS011;63211;48.548;2.704;2023-04-25T11:56:31;0.88;;;0.40;;
74679;SDS011;63211;48.548;2.704;2023-04-25T11:58:58;1.13;;;0.43;;
74679;SDS011;63211;48.548;2.704;2023-04-25T12:01:27;1.23;;;0.63;;
74679;SDS011;63211;48.548;2.704;2023-04-25T12:03:55;1.70;;;0.60;;
74679;SDS011;63211;48.548;2.704;2023-04-25T12:06:27;1.92;;;0.90;;
74679;SDS011;63211;48.548;2.704;2023-04-25T12:09:01;1.98;;;0.85;;
74679;SDS011;63211;48.548;2.704;2023-04-25T12:11:29;1.00;;;0.60;;
74679;SDS011;63211;48.548;2.704;2023-04-25T12:14:01;1.05;;;0.50;;
74679;SDS011;63211;48.548;2.704;2023-04-25T12:16:28;2.70;;;0.70;;
74679;SDS011;63211;48.548;2.704;2023-04-25T12:18:55;0.93;;;0.65;;
74679;SDS011;63211;48.548;2.704;2023-04-25T12:21:22;1.42;;;0.40;;
74679;SDS011;63211;48.548;2.704;2023-04-25T12:23:50;1.27;;;0.60;;
74679;SDS011;63211;48.548;2.704;2023-04-25T12:26:17;3.03;;;0.70;;
74679;SDS011;63211;48.548;2.704;2023-04-25T12:28:45;1.10;;;0.50;;
74679;SDS011;63211;48.548;2.704;2023-04-25T12:31:13;1.60;;;0.63;;
74679;SDS011;63211;48.548;2.704;2023-04-25T12:33:41;1.83;;;0.50;;
74679;SDS011;63211;48.548;2.704;2023-04-25T12:36:08;1.40;;;0.50;;
74679;SDS011;63211;48.548;2.704;2023-04-25T12:38:37;2.22;;;0.57;;
74679;SDS011;63211;48.548;2.704;2023-04-25T12:41:06;2.03;;;0.80;;
74679;SDS011;63211;48.548;2.704;2023-04-25T12:43:33;0.75;;;0.40;;
74679;SDS011;63211;48.548;2.704;2023-04-25T12:46:00;1.67;;;0.60;;
74679;SDS011;63211;48.548;2.704;2023-04-25T12:48:27;1.73;;;0.60;;
74679;SDS011;63211;48.548;2.704;2023-04-25T12:50:54;1.38;;;0.60;;
74679;SDS011;63211;48.548;2.704;2023-04-25T12:53:21;1.00;;;0.52;;
74679;SDS011;63211;48.548;2.704;2023-04-25T12:55:49;0.73;;;0.43;;
74679;SDS011;63211;48.548;2.704;2023-04-25T12:58:18;1.33;;;0.50;;
74679;SDS011;63211;48.548;2.704;2023-04-25T13:00:45;1.17;;;0.50;;
74679;SDS011;63211;48.548;2.704;2023-04-25T13:03:12;1.05;;;0.25;;
74679;SDS011;63211;48.548;2.704;2023-04-25T13:05:39;1.05;;;0.63;;
74679;SDS011;63211;48.548;2.704;2023-04-25T13:08:06;1.50;;;0.65;;
74679;SDS011;63211;48.548;2.704;2023-04-25T13:10:33;1.20;;;0.60;;
74679;SDS011;63211;48.548;2.704;2023-04-25T13:13:01;2.25;;;0.93;;
74679;SDS011;63211;48.548;2.704;2023-04-25T13:15:29;2.15;;;0.63;;
74679;SDS011;63211;48.548;2.704;2023-04-25T13:17:55;1.00;;;0.43;;
74679;SDS011;63211;48.548;2.704;2023-04-25T13:20:22;1.23;;;0.70;;
74679;SDS011;63211;48.548;2.704;2023-04-25T13:22:49;0.70;;;0.38;;
74679;SDS011;63211;48.548;2.704;2023-04-25T13:25:16;1.48;;;0.60;;
74679;SDS011;63211;48.548;2.704;2023-04-25T13:27:43;1.20;;;0.60;;
74679;SDS011;63211;48.548;2.704;2023-04-25T13:30:11;1.00;;;0.60;;
74679;SDS011;63211;48.548;2.704;2023-04-25T13:32:40;0.80;;;0.50;;
74679;SDS011;63211;48.548;2.704;2023-04-25T13:35:07;1.10;;;0.60;;
74679;SDS011;63211;48.548;2.704;2023-04-25T13:37:34;0.73;;;0.50;;
74679;SDS011;63211;48.548;2.704;2023-04-25T13:40:02;0.73;;;0.40;;
74679;SDS011;63211;48.548;2.704;2023-04-25T13:42:31;1.60;;;0.60;;
74679;SDS011;63211;48.548;2.704;2023-04-25T13:44:58;1.13;;;0.40;;
74679;SDS011;63211;48.548;2.704;2023-04-25T13:47:25;1.10;;;0.65;;
74679;SDS011;63211;48.548;2.704;2023-04-25T13:49:53;1.67;;;0.55;;
74679;SDS011;63211;48.548;2.704;2023-04-25T13:52:20;0.77;;;0.50;;
74679;SDS011;63211;48.548;2.704;2023-04-25T13:54:49;0.52;;;0.35;;
74679;SDS011;63211;48.548;2.704;2023-04-25T13:57:15;1.50;;;0.45;;
74679;SDS011;63211;48.548;2.704;2023-04-25T13:59:42;1.00;;;0.55;;
74679;SDS011;63211;48.548;2.704;2023-04-25T14:02:09;0.77;;;0.40;;
74679;SDS011;63211;48.548;2.704;2023-04-25T14:04:35;0.80;;;0.47;;
74679;SDS011;63211;48.548;2.704;2023-04-25T14:07:03;1.27;;;0.50;;
74679;SDS011;63211;48.548;2.704;2023-04-25T14:09:30;0.50;;;0.30;;
74679;SDS011;63211;48.548;2.704;2023-04-25T14:11:56;1.05;;;0.57;;
74679;SDS011;63211;48.548;2.704;2023-04-25T14:14:23;1.17;;;0.50;;
74679;SDS011;63211;48.548;2.704;2023-04-25T14:16:50;0.63;;;0.30;;
74679;SDS011;63211;48.548;2.704;2023-04-25T14:19:19;2.38;;;0.50;;
74679;SDS011;63211;48.548;2.704;2023-04-25T14:21:46;1.05;;;0.40;;
74679;SDS011;63211;48.548;2.704;2023-04-25T14:24:14;0.90;;;0.30;;
74679;SDS011;63211;48.548;2.704;2023-04-25T14:26:41;0.90;;;0.30;;
74679;SDS011;63211;48.548;2.704;2023-04-25T14:29:09;1.45;;;0.40;;
74679;SDS011;63211;48.548;2.704;2023-04-25T14:31:36;1.50;;;0.50;;
74679;SDS011;63211;48.548;2.704;2023-04-25T14:34:04;1.85;;;0.57;;
74679;SDS011;63211;48.548;2.704;2023-04-25T14:36:30;1.00;;;0.47;;
74679;SDS011;63211;48.548;2.704;2023-04-25T14:38:57;0.98;;;0.52;;
74679;SDS011;63211;48.548;2.704;2023-04-25T14:41:26;1.27;;;0.52;;
74679;SDS011;63211;48.548;2.704;2023-04-25T14:43:53;1.92;;;0.60;;
74679;SDS011;63211;48.548;2.704;2023-04-25T14:46:20;2.58;;;0.73;;
74679;SDS011;63211;48.548;2.704;2023-04-25T14:48:48;1.30;;;0.70;;
74679;SDS011;63211;48.548;2.704;2023-04-25T14:51:15;1.92;;;0.80;;